createdAt,value
2019-05-26T00:01:35.931Z,3.40
2019-05-26T00:04:03.287Z,4.87
2019-05-26T00:06:30.627Z,3.33
2019-05-26T00:08:57.848Z,7.67
2019-05-26T00:11:25.094Z,3.35
2019-05-26T00:13:52.850Z,10.65
2019-05-26T00:16:20.174Z,8.78
2019-05-26T00:18:47.528Z,9.78
2019-05-26T00:21:14.825Z,5.37
2019-05-26T00:23:42.165Z,7.10
2019-05-26T00:26:09.483Z,5.28
2019-05-26T00:28:36.718Z,5.05
2019-05-26T00:31:04.060Z,4.28
2019-05-26T00:33:31.401Z,6.15
2019-05-26T00:35:58.679Z,5.22
2019-05-26T00:38:25.911Z,7.37
2019-05-26T00:40:53.156Z,5.37
2019-05-26T00:43:20.435Z,6.35
2019-05-26T00:45:47.830Z,6.03
2019-05-26T00:48:15.119Z,5.75
2019-05-26T00:50:42.433Z,5.67
2019-05-26T00:53:09.736Z,5.12
2019-05-26T00:55:37.075Z,9.18
2019-05-26T00:58:04.395Z,5.97
2019-05-26T01:00:39.724Z,4.33
2019-05-26T01:03:07.052Z,4.07
2019-05-26T01:05:34.281Z,4.22
2019-05-26T01:08:06.372Z,4.40
2019-05-26T01:10:30.723Z,5.70
2019-05-26T01:12:57.963Z,6.00
2019-05-26T01:15:25.227Z,4.40
2019-05-26T01:17:52.500Z,6.25
2019-05-26T01:20:19.839Z,6.47
2019-05-26T01:22:47.101Z,4.20
2019-05-26T01:25:14.573Z,8.83
2019-05-26T01:27:41.813Z,3.60
2019-05-26T01:30:09.499Z,3.95
2019-05-26T01:32:36.916Z,4.10
2019-05-26T01:35:04.623Z,5.13
2019-05-26T01:37:31.918Z,4.25
2019-05-26T01:39:59.245Z,4.17
2019-05-26T01:42:26.586Z,6.28
2019-05-26T01:44:53.820Z,7.17
2019-05-26T01:47:21.049Z,5.67
2019-05-26T01:49:48.298Z,4.55
2019-05-26T01:52:15.532Z,4.53
2019-05-26T01:54:42.771Z,4.60
2019-05-26T01:57:10.028Z,5.00
2019-05-26T01:59:37.269Z,5.00
2019-05-26T02:02:04.517Z,9.75
2019-05-26T02:04:31.791Z,7.97
2019-05-26T02:06:59.127Z,5.57
2019-05-26T02:09:26.406Z,8.35
2019-05-26T02:11:53.716Z,5.62
2019-05-26T02:14:20.936Z,6.70
2019-05-26T02:16:48.187Z,6.43
2019-05-26T02:19:15.424Z,5.97
2019-05-26T02:21:42.760Z,5.50
2019-05-26T02:24:10.084Z,6.60
2019-05-26T02:26:37.407Z,7.23
2019-05-26T02:29:04.661Z,7.83
2019-05-26T02:31:31.991Z,6.47
2019-05-26T02:33:59.340Z,7.63
2019-05-26T02:36:26.598Z,10.90
2019-05-26T02:39:01.896Z,9.28
2019-05-26T02:41:22.964Z,9.30
2019-05-26T02:43:51.490Z,8.35
2019-05-26T02:46:18.727Z,6.90
2019-05-26T02:48:45.953Z,5.97
2019-05-26T02:51:13.196Z,5.10
2019-05-26T02:53:40.584Z,5.20
2019-05-26T02:56:07.927Z,5.20
2019-05-26T02:58:35.178Z,5.17
2019-05-26T03:01:02.942Z,7.60
2019-05-26T03:03:30.268Z,4.97
2019-05-26T03:05:57.680Z,5.12
2019-05-26T03:08:25.574Z,5.37
2019-05-26T03:10:55.382Z,4.43
2019-05-26T03:13:25.105Z,8.38
2019-05-26T03:15:55.315Z,6.70
2019-05-26T03:18:22.995Z,5.57
2019-05-26T03:20:52.529Z,6.80
2019-05-26T03:23:20.172Z,5.53
2019-05-26T03:25:47.893Z,3.98
2019-05-26T03:28:15.204Z,7.47
2019-05-26T03:30:42.454Z,4.87
2019-05-26T03:33:09.788Z,4.90
2019-05-26T03:35:37.032Z,6.45
2019-05-26T03:38:04.264Z,5.20
2019-05-26T03:40:31.552Z,8.23
2019-05-26T03:42:58.880Z,4.83
2019-05-26T03:46:00.540Z,5.57
2019-05-26T03:48:27.892Z,5.10
2019-05-26T03:50:55.159Z,6.93
2019-05-26T03:53:22.443Z,5.00
2019-05-26T03:55:49.662Z,5.13
2019-05-26T03:58:16.910Z,7.40
2019-05-26T04:00:44.151Z,8.37
2019-05-26T04:03:11.394Z,5.77
2019-05-26T04:05:38.780Z,5.90
2019-05-26T04:08:06.029Z,6.03
2019-05-26T04:10:33.341Z,6.00
2019-05-26T04:13:00.627Z,6.60
2019-05-26T04:15:27.920Z,5.58
2019-05-26T04:17:55.348Z,6.43
2019-05-26T04:20:22.593Z,5.23
2019-05-26T04:22:49.863Z,6.67
2019-05-26T04:25:17.119Z,5.70
2019-05-26T04:27:44.482Z,6.30
2019-05-26T04:30:11.848Z,6.60
2019-05-26T04:32:39.157Z,6.70
2019-05-26T04:35:06.517Z,7.47
2019-05-26T04:37:33.754Z,7.77
2019-05-26T04:40:00.997Z,8.30
2019-05-26T04:42:28.241Z,8.63
2019-05-26T04:44:55.494Z,8.97
2019-05-26T04:47:22.841Z,9.30
2019-05-26T04:49:50.173Z,9.30
2019-05-26T04:52:17.464Z,8.67
2019-05-26T04:54:44.815Z,8.67
2019-05-26T04:57:12.140Z,13.33
2019-05-26T04:59:39.468Z,8.47
2019-05-26T05:02:06.707Z,9.07
2019-05-26T05:04:33.944Z,8.80
2019-05-26T05:07:01.194Z,13.70
2019-05-26T05:09:28.448Z,12.63
2019-05-26T05:11:55.667Z,12.70
2019-05-26T05:14:22.888Z,14.23
2019-05-26T05:16:50.149Z,12.25
2019-05-26T05:19:17.416Z,14.45
2019-05-26T05:21:44.656Z,11.67
2019-05-26T05:24:11.859Z,13.07
2019-05-26T05:26:39.152Z,12.50
2019-05-26T05:29:06.383Z,14.17
2019-05-26T05:31:33.603Z,17.83
2019-05-26T05:34:00.857Z,11.93
2019-05-26T05:36:28.172Z,12.67
2019-05-26T05:38:55.401Z,13.70
2019-05-26T05:41:22.675Z,13.23
2019-05-26T05:43:49.958Z,13.30
2019-05-26T05:46:17.623Z,12.60
2019-05-26T05:48:44.999Z,13.08
2019-05-26T05:51:12.259Z,14.23
2019-05-26T05:53:40.510Z,14.43
2019-05-26T05:56:07.859Z,15.20
2019-05-26T05:58:36.174Z,14.07
2019-05-26T06:01:03.505Z,13.53
2019-05-26T06:03:30.786Z,14.45
2019-05-26T06:05:58.159Z,14.58
2019-05-26T06:08:25.579Z,16.03
2019-05-26T06:10:56.275Z,13.98
2019-05-26T06:13:23.690Z,13.97
2019-05-26T06:15:50.927Z,13.70
2019-05-26T06:18:18.292Z,14.93
2019-05-26T06:20:45.596Z,13.93
2019-05-26T06:23:13.120Z,12.70
2019-05-26T06:25:40.503Z,16.30
2019-05-26T06:28:07.821Z,14.40
2019-05-26T06:30:35.208Z,16.05
2019-05-26T06:33:02.483Z,15.65
2019-05-26T06:35:32.575Z,13.85
2019-05-26T06:37:58.995Z,13.07
2019-05-26T06:40:26.432Z,13.43
2019-05-26T06:42:53.818Z,13.03
2019-05-26T06:45:21.251Z,12.28
2019-05-26T06:47:49.184Z,12.35
2019-05-26T06:50:17.875Z,15.43
2019-05-26T06:52:45.248Z,17.02
2019-05-26T06:55:12.824Z,13.38
2019-05-26T06:57:40.219Z,13.10
2019-05-26T07:00:08.087Z,15.87
2019-05-26T07:02:35.523Z,10.88
2019-05-26T07:05:03.704Z,13.28
2019-05-26T07:07:31.100Z,13.08
2019-05-26T07:09:58.514Z,12.20
2019-05-26T07:12:25.984Z,11.63
2019-05-26T07:14:53.310Z,15.65
2019-05-26T07:17:20.863Z,11.65
2019-05-26T07:19:48.175Z,13.40
2019-05-26T07:22:15.480Z,11.00
2019-05-26T07:24:42.815Z,12.07
2019-05-26T07:27:10.324Z,17.73
2019-05-26T07:29:37.775Z,11.97
2019-05-26T07:32:05.516Z,15.50
2019-05-26T07:34:32.781Z,10.10
2019-05-26T07:37:00.106Z,16.82
2019-05-26T07:39:27.440Z,13.08
2019-05-26T07:42:09.212Z,12.43
2019-05-26T07:44:24.056Z,10.35
2019-05-26T07:46:51.434Z,16.32
2019-05-26T07:49:18.835Z,14.90
2019-05-26T07:51:46.501Z,9.98
2019-05-26T07:54:25.251Z,9.75
2019-05-26T07:56:43.150Z,9.50
2019-05-26T07:59:10.429Z,12.30
2019-05-26T08:01:37.730Z,10.08
2019-05-26T08:04:05.081Z,16.12
2019-05-26T08:06:32.447Z,10.63
2019-05-26T08:09:09.087Z,11.00
2019-05-26T08:11:36.484Z,9.75
2019-05-26T08:14:03.821Z,10.00
2019-05-26T08:16:31.617Z,8.83
2019-05-26T08:18:58.996Z,13.22
2019-05-26T08:21:26.442Z,11.00
2019-05-26T08:23:53.770Z,9.68
2019-05-26T08:26:21.658Z,17.23
2019-05-26T08:28:49.047Z,8.38
2019-05-26T08:31:16.488Z,9.43
2019-05-26T08:33:44.311Z,9.78
2019-05-26T08:36:11.559Z,10.95
2019-05-26T08:38:39.040Z,13.78
2019-05-26T08:41:07.096Z,8.75
2019-05-26T08:43:34.564Z,9.53
2019-05-26T08:46:01.902Z,11.60
2019-05-26T08:48:29.334Z,7.37
2019-05-26T08:50:56.588Z,9.40
2019-05-26T08:53:23.952Z,12.00
2019-05-26T08:55:51.265Z,11.40
2019-05-26T08:58:18.612Z,7.65
2019-05-26T09:00:45.960Z,11.97
2019-05-26T09:03:13.392Z,6.03
2019-05-26T09:05:40.993Z,8.75
2019-05-26T09:08:08.452Z,5.92
2019-05-26T09:10:35.886Z,6.22
2019-05-26T09:13:03.211Z,6.37
2019-05-26T09:15:30.467Z,5.55
2019-05-26T09:17:57.940Z,5.33
2019-05-26T09:20:25.480Z,5.87
2019-05-26T09:22:52.743Z,8.48
2019-05-26T09:25:20.052Z,5.47
2019-05-26T09:27:47.446Z,5.05
2019-05-26T09:30:15.889Z,3.90
2019-05-26T09:32:43.188Z,3.65
2019-05-26T09:35:11.135Z,4.60
2019-05-26T09:37:38.457Z,4.65
2019-05-26T09:40:06.347Z,3.40
2019-05-26T09:42:33.755Z,3.58
2019-05-26T09:45:02.067Z,3.70
2019-05-26T09:47:31.675Z,5.17
2019-05-26T09:49:59.090Z,3.35
2019-05-26T09:52:27.312Z,3.40
2019-05-26T09:54:54.623Z,3.10
2019-05-26T09:57:21.924Z,3.45
2019-05-26T09:59:49.218Z,6.55
2019-05-26T10:02:16.617Z,4.58
2019-05-26T10:04:44.076Z,3.37
2019-05-26T10:07:24.430Z,2.65
2019-05-26T10:09:51.840Z,3.33
2019-05-26T10:12:19.908Z,4.08
2019-05-26T10:14:47.874Z,3.37
2019-05-26T10:17:15.352Z,2.42
2019-05-26T10:19:42.755Z,2.65
2019-05-26T10:22:10.166Z,3.05
2019-05-26T10:24:37.420Z,4.47
2019-05-26T10:27:04.876Z,1.75
2019-05-26T10:29:32.134Z,2.70
2019-05-26T10:31:59.425Z,2.33
2019-05-26T10:34:26.696Z,1.92
2019-05-26T10:36:54.131Z,2.33
2019-05-26T10:39:21.458Z,4.22
2019-05-26T10:41:48.888Z,1.67
2019-05-26T10:44:16.392Z,1.30
2019-05-26T10:46:43.714Z,1.87
2019-05-26T10:49:12.161Z,1.72
2019-05-26T10:51:39.512Z,2.30
2019-05-26T10:54:06.953Z,3.20
2019-05-26T10:56:34.412Z,3.65
2019-05-26T10:59:01.714Z,2.58
2019-05-26T11:01:28.979Z,1.75
2019-05-26T11:03:56.259Z,1.60
2019-05-26T11:06:23.688Z,1.27
2019-05-26T11:08:51.044Z,1.02
2019-05-26T11:11:18.309Z,1.42
2019-05-26T11:13:45.596Z,1.12
2019-05-26T11:16:12.864Z,1.55
2019-05-26T11:18:40.132Z,1.92
2019-05-26T11:21:07.359Z,1.75
2019-05-26T11:23:34.623Z,1.45
2019-05-26T11:26:01.921Z,1.37
2019-05-26T11:28:29.230Z,2.45
2019-05-26T11:30:56.659Z,1.90
2019-05-26T11:33:23.956Z,1.82
2019-05-26T11:35:51.187Z,2.80
2019-05-26T11:38:18.420Z,11.55
2019-05-26T11:40:45.801Z,2.50
2019-05-26T11:43:16.919Z,1.62
2019-05-26T11:45:42.296Z,2.17
2019-05-26T11:48:09.815Z,2.17
2019-05-26T11:50:37.177Z,2.20
2019-05-26T11:53:07.372Z,1.55
2019-05-26T11:55:34.757Z,1.22
2019-05-26T11:58:02.131Z,1.72
2019-05-26T12:00:29.375Z,1.92
2019-05-26T12:02:56.644Z,1.72
2019-05-26T12:05:25.779Z,2.05
2019-05-26T12:07:53.023Z,2.35
2019-05-26T12:10:20.459Z,1.20
2019-05-26T12:12:47.710Z,1.50
2019-05-26T12:15:15.786Z,1.32
2019-05-26T12:17:43.222Z,1.32
2019-05-26T12:20:10.848Z,1.37
2019-05-26T12:22:38.084Z,1.45
2019-05-26T12:25:05.760Z,1.40
2019-05-26T12:27:33.278Z,5.90
2019-05-26T12:30:00.634Z,1.77
2019-05-26T12:32:27.895Z,2.98
2019-05-26T12:34:55.163Z,2.05
2019-05-26T12:37:22.463Z,1.17
2019-05-26T12:39:49.691Z,1.10
2019-05-26T12:42:17.314Z,1.12
2019-05-26T12:44:49.732Z,1.17
2019-05-26T12:47:13.900Z,0.82
2019-05-26T12:49:41.164Z,0.60
2019-05-26T12:52:08.520Z,1.10
2019-05-26T12:54:35.788Z,0.88
2019-05-26T12:57:03.120Z,0.50
2019-05-26T12:59:30.395Z,1.52
2019-05-26T13:01:57.655Z,0.40
2019-05-26T13:04:24.931Z,0.57
2019-05-26T13:06:52.282Z,1.17
2019-05-26T13:09:19.666Z,0.50
2019-05-26T13:11:47.004Z,0.65
2019-05-26T13:14:14.309Z,0.68
2019-05-26T13:16:41.704Z,1.05
2019-05-26T13:19:09.024Z,0.45
2019-05-26T13:21:36.305Z,0.50
2019-05-26T13:24:04.203Z,1.37
2019-05-26T13:26:31.770Z,1.75
2019-05-26T13:28:59.158Z,1.65
2019-05-26T13:31:26.480Z,0.75
2019-05-26T13:33:53.875Z,1.55
2019-05-26T13:36:21.160Z,1.25
2019-05-26T13:38:48.475Z,0.75
2019-05-26T13:41:15.759Z,1.07
2019-05-26T13:43:43.121Z,1.22
2019-05-26T13:46:10.480Z,1.32
2019-05-26T13:48:37.791Z,0.55
2019-05-26T13:51:05.987Z,2.83
2019-05-26T13:53:33.227Z,0.47
2019-05-26T13:56:00.472Z,0.37
2019-05-26T13:58:27.724Z,1.85
2019-05-26T14:00:55.171Z,0.42
2019-05-26T14:03:25.932Z,0.42
2019-05-26T14:05:53.858Z,0.90
2019-05-26T14:08:23.393Z,2.08
2019-05-26T14:10:50.981Z,0.30
2019-05-26T14:13:18.607Z,1.52
2019-05-26T14:15:47.187Z,0.72
2019-05-26T14:18:17.510Z,0.55
2019-05-26T14:20:45.809Z,1.12
2019-05-26T14:23:13.127Z,2.40
2019-05-26T14:25:40.507Z,1.55
2019-05-26T14:28:08.169Z,0.60
2019-05-26T14:30:36.063Z,1.45
2019-05-26T14:33:04.015Z,1.27
2019-05-26T14:35:31.436Z,1.15
2019-05-26T14:37:58.694Z,2.10
2019-05-26T14:40:26.059Z,5.87
2019-05-26T14:42:53.542Z,1.27
2019-05-26T14:45:21.017Z,0.37
2019-05-26T14:47:48.516Z,0.50
2019-05-26T14:50:16.984Z,0.50
2019-05-26T14:52:45.481Z,1.47
2019-05-26T14:55:13.591Z,0.40
2019-05-26T14:57:41.209Z,1.40
2019-05-26T15:00:10.362Z,0.40
2019-05-26T15:02:37.808Z,0.40
2019-05-26T15:05:06.970Z,0.50
2019-05-26T15:07:35.067Z,0.55
2019-05-26T15:10:02.442Z,1.07
2019-05-26T15:12:29.794Z,1.00
2019-05-26T15:14:57.128Z,1.70
2019-05-26T15:17:25.366Z,0.30
2019-05-26T15:19:52.810Z,0.30
2019-05-26T15:22:20.162Z,0.85
2019-05-26T15:24:47.635Z,1.55
2019-05-26T15:27:15.035Z,0.42
2019-05-26T15:29:42.384Z,0.60
2019-05-26T15:32:09.787Z,0.30
2019-05-26T15:34:37.177Z,0.30
2019-05-26T15:37:04.587Z,0.62
2019-05-26T15:39:31.853Z,0.40
2019-05-26T15:41:59.214Z,0.30
2019-05-26T15:44:26.630Z,2.12
2019-05-26T15:46:53.983Z,1.35
2019-05-26T15:49:21.260Z,0.30
2019-05-26T15:51:48.583Z,2.77
2019-05-26T15:54:15.860Z,0.40
2019-05-26T15:56:45.056Z,1.55
2019-05-26T15:59:12.432Z,0.57
2019-05-26T16:01:39.795Z,0.53
2019-05-26T16:04:07.193Z,0.60
2019-05-26T16:06:34.619Z,0.60
2019-05-26T16:09:01.940Z,0.50
2019-05-26T16:11:29.328Z,1.85
2019-05-26T16:13:56.598Z,0.60
2019-05-26T16:16:32.475Z,4.37
2019-05-26T16:18:53.171Z,1.72
2019-05-26T16:21:27.889Z,0.57
2019-05-26T16:23:49.842Z,2.83
2019-05-26T16:26:17.279Z,1.20
2019-05-26T16:28:44.607Z,0.75
2019-05-26T16:31:12.409Z,0.40
2019-05-26T16:33:39.823Z,0.78
2019-05-26T16:36:07.187Z,0.90
2019-05-26T16:38:34.546Z,0.70
2019-05-26T16:41:01.835Z,0.60
2019-05-26T16:43:29.060Z,0.40
2019-05-26T16:45:56.691Z,0.85
2019-05-26T16:48:24.197Z,0.47
2019-05-26T16:50:51.597Z,0.53
2019-05-26T16:53:19.132Z,0.90
2019-05-26T16:55:46.475Z,0.98
2019-05-26T16:58:13.803Z,2.55
2019-05-26T17:00:41.119Z,0.68
2019-05-26T17:03:08.566Z,1.05
2019-05-26T17:05:36.035Z,1.55
2019-05-26T17:08:03.371Z,1.55
2019-05-26T17:10:30.839Z,0.93
2019-05-26T17:13:07.369Z,0.40
2019-05-26T17:15:35.989Z,1.47
2019-05-26T17:18:03.523Z,0.60
2019-05-26T17:20:33.736Z,0.50
2019-05-26T17:23:03.267Z,0.75
2019-05-26T17:25:30.600Z,1.07
2019-05-26T17:27:58.066Z,0.65
2019-05-26T17:30:27.322Z,1.12
2019-05-26T17:32:54.590Z,1.05
2019-05-26T17:35:21.900Z,0.68
2019-05-26T17:37:49.156Z,2.70
2019-05-26T17:40:16.495Z,0.57
2019-05-26T17:42:43.789Z,1.92
2019-05-26T17:45:11.257Z,0.78
2019-05-26T17:47:39.540Z,0.95
2019-05-26T17:50:07.625Z,1.05
2019-05-26T17:52:34.928Z,2.25
2019-05-26T17:55:02.201Z,0.75
2019-05-26T17:57:29.572Z,1.65
2019-05-26T17:59:56.835Z,1.17
2019-05-26T18:02:24.121Z,0.60
2019-05-26T18:04:52.595Z,1.37
2019-05-26T18:07:20.457Z,1.60
2019-05-26T18:09:48.646Z,1.40
2019-05-26T18:12:16.291Z,1.65
2019-05-26T18:14:45.935Z,1.35
2019-05-26T18:17:13.319Z,0.85
2019-05-26T18:19:40.616Z,1.47
2019-05-26T18:22:07.907Z,0.50
2019-05-26T18:24:35.183Z,2.37
2019-05-26T18:27:04.796Z,0.42
2019-05-26T18:29:32.083Z,0.68
2019-05-26T18:31:59.457Z,0.57
2019-05-26T18:34:26.831Z,0.60
2019-05-26T18:36:54.107Z,0.55
2019-05-26T18:39:21.368Z,3.52
2019-05-26T18:41:48.665Z,0.40
2019-05-26T18:44:15.968Z,0.50
2019-05-26T18:46:43.268Z,1.10
2019-05-26T18:49:10.573Z,2.00
2019-05-26T18:51:37.905Z,0.70
2019-05-26T18:54:08.345Z,2.75
2019-05-26T18:56:35.784Z,0.70
2019-05-26T18:59:03.275Z,3.30
2019-05-26T19:01:30.587Z,2.92
2019-05-26T19:03:57.871Z,1.20
2019-05-26T19:06:25.128Z,0.70
2019-05-26T19:08:52.391Z,2.08
2019-05-26T19:11:19.857Z,0.60
2019-05-26T19:13:47.257Z,0.60
2019-05-26T19:16:14.616Z,0.90
2019-05-26T19:18:42.706Z,1.00
2019-05-26T19:21:10.036Z,0.65
2019-05-26T19:23:37.404Z,0.78
2019-05-26T19:26:05.076Z,0.57
2019-05-26T19:28:33.759Z,0.45
2019-05-26T19:31:01.312Z,3.12
2019-05-26T19:33:28.902Z,33.60
2019-05-26T19:35:56.225Z,1.87
2019-05-26T19:38:23.535Z,1.10
2019-05-26T19:40:50.879Z,1.85
2019-05-26T19:43:18.185Z,0.85
2019-05-26T19:45:45.502Z,0.75
2019-05-26T19:48:12.894Z,0.45
2019-05-26T19:50:40.317Z,0.78
2019-05-26T19:53:07.627Z,1.12
2019-05-26T19:55:34.914Z,2.05
2019-05-26T19:58:02.295Z,0.60
2019-05-26T20:00:29.672Z,0.88
2019-05-26T20:02:57.830Z,0.72
2019-05-26T20:05:28.376Z,1.55
2019-05-26T20:07:55.776Z,3.12
2019-05-26T20:10:23.379Z,4.10
2019-05-26T20:12:50.836Z,0.93
2019-05-26T20:15:27.247Z,0.80
2019-05-26T20:17:54.836Z,1.17
2019-05-26T20:20:22.274Z,0.60
2019-05-26T20:22:49.702Z,0.55
2019-05-26T20:25:17.509Z,0.40
2019-05-26T20:27:44.983Z,0.50
2019-05-26T20:30:12.702Z,2.60
2019-05-26T20:32:40.184Z,0.60
2019-05-26T20:35:07.888Z,1.95
2019-05-26T20:37:35.441Z,0.70
2019-05-26T20:40:06.502Z,0.70
2019-05-26T20:42:33.957Z,1.20
2019-05-26T20:45:01.400Z,0.68
2019-05-26T20:47:28.826Z,1.95
2019-05-26T20:49:56.286Z,0.80
2019-05-26T20:52:23.855Z,0.65
2019-05-26T20:54:51.386Z,0.85
2019-05-26T20:57:21.653Z,0.60
2019-05-26T20:59:49.232Z,0.50
2019-05-26T21:02:27.896Z,1.57
2019-05-26T21:04:55.439Z,0.90
2019-05-26T21:07:28.844Z,2.17
2019-05-26T21:09:56.216Z,1.52
2019-05-26T21:12:23.663Z,0.70
2019-05-26T21:14:51.133Z,0.55
2019-05-26T21:17:18.364Z,3.62
2019-05-26T21:19:48.130Z,1.45
2019-05-26T21:22:15.418Z,0.50
2019-05-26T21:24:42.877Z,3.80
2019-05-26T21:27:10.131Z,0.70
2019-05-26T21:29:37.535Z,0.90
2019-05-26T21:32:05.146Z,0.68
2019-05-26T21:34:32.655Z,2.85
2019-05-26T21:37:03.953Z,2.35
2019-05-26T21:39:35.312Z,5.62
2019-05-26T21:42:02.705Z,0.93
2019-05-26T21:44:29.979Z,1.15
2019-05-26T21:46:57.526Z,3.83
2019-05-26T21:49:25.083Z,0.70
2019-05-26T21:51:52.509Z,3.40
2019-05-26T21:54:19.830Z,1.20
2019-05-26T21:56:47.074Z,8.05
2019-05-26T21:59:15.810Z,1.07
2019-05-26T22:01:43.857Z,1.32
2019-05-26T22:04:11.492Z,1.15
2019-05-26T22:06:38.912Z,1.85
2019-05-26T22:09:11.308Z,4.17
2019-05-26T22:11:38.699Z,2.42
2019-05-26T22:14:06.318Z,0.95
2019-05-26T22:16:33.615Z,0.90
2019-05-26T22:19:00.910Z,0.68
2019-05-26T22:21:28.418Z,1.55
2019-05-26T22:23:56.802Z,0.90
2019-05-26T22:26:24.247Z,1.50
2019-05-26T22:28:51.627Z,0.68
2019-05-26T22:31:18.943Z,2.10
2019-05-26T22:33:46.236Z,0.78
2019-05-26T22:36:13.497Z,1.15
2019-05-26T22:38:40.825Z,1.40
2019-05-26T22:41:08.101Z,1.17
2019-05-26T22:43:35.339Z,1.10
2019-05-26T22:46:02.584Z,2.30
2019-05-26T22:48:29.864Z,0.85
2019-05-26T22:50:57.218Z,0.75
2019-05-26T22:53:24.574Z,0.93
2019-05-26T22:55:51.817Z,0.80
2019-05-26T22:58:19.152Z,1.05
2019-05-26T23:00:46.467Z,0.88
2019-05-26T23:03:14.145Z,1.00
2019-05-26T23:05:42.668Z,1.33
2019-05-26T23:08:10.180Z,0.78
2019-05-26T23:10:37.627Z,0.80
2019-05-26T23:13:04.995Z,1.00
2019-05-26T23:15:32.360Z,1.22
2019-05-26T23:17:59.610Z,1.27
2019-05-26T23:20:26.842Z,2.17
2019-05-26T23:22:54.084Z,0.85
2019-05-26T23:25:21.451Z,0.70
2019-05-26T23:27:48.695Z,1.20
2019-05-26T23:30:17.231Z,1.90
2019-05-26T23:32:46.803Z,1.22
2019-05-26T23:35:14.283Z,1.17
2019-05-26T23:37:41.626Z,1.25
2019-05-26T23:40:08.914Z,1.45
2019-05-26T23:42:36.272Z,1.32
2019-05-26T23:45:05.675Z,1.42
2019-05-26T23:47:32.918Z,1.42
2019-05-26T23:50:00.219Z,3.05
2019-05-26T23:52:27.451Z,1.20
2019-05-26T23:54:54.751Z,1.75
2019-05-26T23:57:22.099Z,1.75
2019-05-26T23:59:49.359Z,3.50
